Clover Valley, Nevada Weather observations

Data are for 10 minute period ending at time listed.
 Day   Time   Solar   Ave.   Ave.  Ave.  Vector  Max.   Baro.   Total    
  of    of     Rad.   Air    Rel.  Wind   Wind   Wind  Press.  Precip.   
Year   Day            Temp.  Hum.  Speed  Dir.   Gust                    
2016   (PST)  Kw/m2    F      %     mph   deg.    mph    mb.     in.     
-------------------------------------------------------------------------
 271    0:00   0.00   40.0    89    1.1   188     2.7   833.2    0.00 
 271    0:10   0.00   39.6    90    1.3   269     1.8   833.2    0.00 
 271    0:20   0.00   39.8    89    1.1   325     1.8   833.1    0.00 
 271    0:30   0.00   39.8    89    1.1   326     2.2   833.1    0.00 
 271    0:40   0.00   40.4    88    2.2   327     3.1   833.2    0.00 
 271    0:50   0.00   38.4    88    2.2   111     4.1   833.1    0.00 
 271    1:00   0.00   38.7    90    0.3    20     1.0   833.1    0.00 
 271    1:10   0.00   38.5    90    1.0   336     1.7   833.0    0.00 
 271    1:20   0.00   38.4    89    1.9   335     2.9   833.0    0.00 
 271    1:30   0.00   37.7    90    1.8   332     2.6   833.0    0.00 
 271    1:40   0.00   37.9    89    2.6   337     3.4   833.0    0.00 
 271    1:50   0.00   38.0    89    2.8     4     3.9   832.9    0.00 
 271    2:00   0.00   37.4    89    2.5    10     3.1   832.8    0.00 
 271    2:10   0.00   36.5    90    2.9    16     3.4   832.7    0.00 
 271    2:20   0.00   36.5    91    3.8   360     4.5   832.6    0.00 
 271    2:30   0.00   36.2    91    2.5     9     4.2   832.5    0.00 
 271    2:40   0.00   36.5    91    2.6   349     3.9   832.5    0.00 
 271    2:50   0.00   35.6    91    2.9   309     4.0   832.6    0.00 
 271    3:00   0.00   35.5    92    2.2   323     3.4   832.6    0.00 
 271    3:10   0.00   35.5    92    1.1   345     2.1   832.6    0.00 
 271    3:20   0.00   35.1    92    2.5   263     3.3   832.6    0.00 
 271    3:30   0.00   35.0    92    1.4   235     1.8   832.6    0.00 
 271    3:40   0.00   34.8    93    0.3   299     1.2   832.6    0.00 
 271    3:50   0.00   35.5    93    0.6   340     1.2   832.6    0.00 
 271    4:00   0.00   35.9    92    2.1   342     2.9   832.6    0.00 
 271    4:10   0.00   35.7    90    2.9   346     3.4   832.6    0.00 
 271    4:20   0.00   35.7    89    3.3   335     3.7   832.8    0.00 
 271    4:30   0.00   35.3    90    2.6   324     3.3   832.8    0.00 
 271    4:40   0.00   36.3    89    2.7   345     3.4   832.8    0.00 
 271    4:50   0.00   35.2    88    2.9   338     3.5   832.8    0.00 
 271    5:00   0.00   35.0    90    3.6   347     4.5   832.8    0.00 
 271    5:10   0.00   34.4    91    3.3     3     4.1   832.8    0.00 
 271    5:20   0.00   33.7    92    3.8    14     4.4   832.8    0.00 
 271    5:30   0.00   33.4    93    4.1     6     5.3   832.8    0.00 
 271    5:40   0.01   34.1    93    2.4   358     4.7   832.8    0.00 
 271    5:50   0.03   34.4    93    2.7   319     3.8   832.9    0.00 
 271    6:00   0.05   35.0    93    2.0   313     4.0   833.0    0.00 
 271    6:10   0.07   37.1    92    0.2   321     1.2   833.1    0.00 
 271    6:20   0.09   40.0    88    0.0     0     0.0   833.0    0.00 
 271    6:30   0.12   41.7    84    0.0     0     0.0   833.0    0.00 
 271    6:40   0.15   44.9    80    0.0     0     0.0   832.9    0.00 
 271    6:50   0.18   46.0    77    0.0     0     0.0   832.8    0.00 
 271    7:00   0.21   48.1    78    0.2   116     1.2   832.7    0.00 
 271    7:10   0.24   48.8    75    1.3   113     2.3   832.6    0.00 
 271    7:20   0.26   50.1    72    0.8   162     2.0   832.6    0.00 
 271    7:30   0.29   53.3    64    0.5   112     2.3   832.6    0.00 
 271    7:40   0.32   52.5    66    0.4    73     2.0   832.7    0.00 
 271    7:50   0.36   54.4    64    1.1   163     2.8   832.8    0.00 
 271    8:00   0.38   53.0    67    2.3   124     3.7   833.0    0.00 
 271    8:10   0.41   53.2    69    2.7   131     4.9   833.0    0.00 
 271    8:20   0.44   54.0    66    2.5   143     3.9   833.1    0.00 
 271    8:30   0.46   54.8    63    2.0   139     4.2   833.1    0.00 
 271    8:40   0.49   56.0    60    2.8   134     5.4   833.1    0.00 
 271    8:50   0.51   55.7    62    3.6   134     6.1   833.1    0.00 
 271    9:00   0.54   57.2    62    3.0   115     5.1   833.1    0.00 
 271    9:10   0.56   58.4    59    3.6   123     5.8   833.1    0.00 
 271    9:20   0.58   59.4    55    3.4   126     6.4   833.1    0.00 
 271    9:30   0.61   60.4    53    2.6   138     5.3   833.0    0.00 
 271    9:40   0.63   61.8    48    2.5   141     4.5   832.8    0.00 
 271    9:50   0.47   63.1    48    1.8   112     4.8   832.7    0.00 
 271   10:00   0.39   63.9    47    1.5    74     3.2   832.6    0.00 
 271   10:10   0.67   65.3    44    1.4    93     3.5   832.5    0.00 
 271   10:20   0.69   66.5    42    2.5   151     5.4   832.4    0.00 
 271   10:30   0.69   68.1    40    2.2   180     4.8   832.3    0.00 
 271   10:40   0.71   68.7    39    1.5   139     3.7   832.2    0.00 
 271   10:50   0.71   68.8    38    2.4   173     4.5   832.1    0.00 
 271   11:00   0.72   69.7    35    1.4   284     3.1   832.0    0.00 
 271   11:10   0.72   70.3    37    1.4   144     3.4   831.9    0.00 
 271   11:20   0.73   71.5    33    1.2   215     3.2   831.8    0.00 
 271   11:30   0.73   71.6    36    1.4    52     3.1   831.6    0.00 
 271   11:40   0.73   70.3    38    1.7    31     4.5   831.5    0.00 
 271   11:50   0.73   70.4    36    1.6    47     4.1   831.3    0.00 
 271   12:00   0.72   70.6    36    2.0    69     3.3   831.2    0.00 
 271   12:10   0.72   71.7    33    1.3    32     3.1   831.0    0.00 
 271   12:20   0.71   72.3    32    1.9    11     4.3   830.9    0.00 
 271   12:30   0.71   71.6    31    3.3    59     5.9   830.8    0.00 
 271   12:40   0.70   73.3    30    1.6    97     4.2   830.8    0.00 
 271   12:50   0.69   72.5    31    3.5    54     6.2   830.6    0.00 
 271   13:00   0.67   72.4    32    3.2    68     6.7   830.5    0.00 
 271   13:10   0.66   73.4    28    2.2    92     5.5   830.5    0.00 
 271   13:20   0.63   73.9    27    2.4    99     5.4   830.4    0.00 
 271   13:30   0.63   74.1    26    2.2    81     7.0   830.2    0.00 
 271   13:40   0.59   74.8    25    1.9    44     5.8   830.2    0.00 
 271   13:50   0.59   73.8    27    2.9   100     5.8   830.0    0.00 
 271   14:00   0.57   75.1    24    1.7   121     4.3   829.9    0.00 
 271   14:10   0.54   75.1    25    3.4   151     6.0   829.8    0.00 
 271   14:20   0.52   75.5    24    2.1   138     4.8   829.8    0.00 
 271   14:30   0.50   75.1    31    2.2    71     4.0   829.7    0.00 
 271   14:40   0.47   74.7    27    2.0    94     4.7   829.7    0.00 
 271   14:50   0.44   76.0    26    1.4    39     2.9   829.6    0.00 
 271   15:00   0.42   75.0    31    2.9    78     7.0   829.6    0.00 
 271   15:10   0.39   74.3    27    2.6    74     6.2   829.5    0.00 
 271   15:20   0.36   74.3    26    3.2    93     6.3   829.4    0.00 
 271   15:30   0.33   74.0    24    2.7   104     5.9   829.5    0.00 
 271   15:40   0.30   74.6    30    1.7    60     2.9   829.5    0.00 
 271   15:50   0.27   75.0    28    0.8    83     2.3   829.5    0.00 
 271   16:00   0.24   76.1    28    0.5   132     2.6   829.5    0.00 
 271   16:10   0.21   73.0    34    3.5   132     4.8   829.6    0.00 
 271   16:20   0.18   72.5    30    3.4   143     5.4   829.6    0.00 
 271   16:30   0.15   71.4    38    2.2   130     2.9   829.6    0.00 
 271   16:40   0.13   72.0    30    2.4   135     3.3   829.6    0.00 
 271   16:50   0.10   72.4    29    2.5   130     3.5   829.6    0.00 
 271   17:00   0.07   71.5    29    2.2   135     2.8   829.7    0.00 
 271   17:10   0.01   70.9    28    1.7   132     2.0   829.7    0.00 
 271   17:20   0.01   69.8    30    1.5   132     3.0   829.7    0.00 
 271   17:30   0.01   62.7    46    4.4   311     5.4   829.7    0.00 
 271   17:40   0.00   57.5    56    3.1   308     4.7   829.7    0.00 
 271   17:50   0.00   56.5    55    4.0   306     4.4   829.7    0.00 
 271   18:00   0.00   55.3    58    3.4   308     4.3   829.8    0.00 
 271   18:10   0.00   53.7    60    3.0   303     4.8   829.8    0.00 
 271   18:20   0.00   53.7    61    3.1   283     4.7   829.8    0.00 
 271   18:30   0.00   53.0    61    1.2   313     2.1   829.8    0.00 
 271   18:40   0.00   52.9    60    2.1   300     3.1   829.8    0.00 
 271   18:50   0.00   53.8    57    3.5   276     4.2   829.8    0.00 
 271   19:00   0.00   53.8    56    4.5   296     5.6   829.9    0.00 
 271   19:10   0.00   50.0    67    3.8     4     6.6   830.0    0.00 
 271   19:20   0.00   48.5    72    3.2   343     4.3   829.9    0.00 
 271   19:30   0.00   48.1    72    2.3   356     3.4   830.0    0.00 
 271   19:40   0.00   48.9    69    3.0   346     4.7   830.0    0.00 
 271   19:50   0.00   48.3    70    4.3   311     5.3   830.0    0.00 
 271   20:00   0.00   48.4    69    5.2   326     5.8   830.1    0.00 
 271   20:10   0.00   46.9    73    4.8   323     5.8   830.1    0.00 
 271   20:20   0.00   46.0    76    3.8   325     6.1   830.1    0.00 
 271   20:30   0.00   44.8    78    4.0   324     4.7   830.1    0.00 
 271   20:40   0.00   44.5    78    4.5   322     5.4   830.1    0.00 
 271   20:50   0.00   43.7    80    3.2   351     4.3   830.1    0.00 
 271   21:00   0.00   44.1    79    5.1   350     6.0   830.1    0.00 
 271   21:10   0.00   45.1    76    3.2     0     6.2   830.1    0.00 
 271   21:20   0.00   44.3    78    3.5     4     4.5   830.1    0.00 
 271   21:30   0.00   44.2    78    3.7   348     4.2   830.1    0.00 
 271   21:40   0.00   43.5    80    3.7   357     4.4   830.1    0.00 
 271   21:50   0.00   43.9    80    2.3   353     3.5   830.2    0.00 
 271   22:00   0.00   43.3    81    3.3   304     4.5   830.2    0.00 
 271   22:10   0.00   42.5    83    4.4   306     5.2   830.2    0.00 

Return to Clover Valley graphs page.


Western Regional Climate Center,wrcc@dri.edu